createdAt,value
2022-08-25T00:08:46.818Z,1013.28
2022-08-25T00:23:46.923Z,1013.27
2022-08-25T00:38:46.916Z,1013.27
2022-08-25T00:53:46.906Z,1013.35
2022-08-25T01:08:46.939Z,1013.42
2022-08-25T01:23:47.165Z,1013.37
2022-08-25T01:38:47.008Z,1013.42
2022-08-25T01:53:47.186Z,1013.53
2022-08-25T02:08:47.301Z,1013.60
2022-08-25T02:23:47.161Z,1013.50
2022-08-25T02:38:47.369Z,1013.60
2022-08-25T02:53:47.351Z,1013.50
2022-08-25T03:08:47.336Z,1013.41
2022-08-25T03:23:47.601Z,1013.17
2022-08-25T03:38:47.449Z,1013.14
2022-08-25T03:53:47.467Z,1013.07
2022-08-25T04:08:47.532Z,1013.05
2022-08-25T04:23:47.582Z,1012.81
2022-08-25T04:38:47.834Z,1012.84
2022-08-25T04:53:47.672Z,1012.97
2022-08-25T05:08:47.703Z,1012.79
2022-08-25T05:23:47.891Z,1012.79
2022-08-25T05:38:47.668Z,1012.80
2022-08-25T05:53:47.791Z,1012.76
2022-08-25T06:08:47.803Z,1012.57
2022-08-25T06:23:47.904Z,1012.64
2022-08-25T06:38:48.074Z,1012.79
2022-08-25T06:53:47.890Z,1012.83
2022-08-25T07:08:47.957Z,1012.91
2022-08-25T07:23:48.278Z,1012.84
2022-08-25T07:38:48.198Z,1012.74
2022-08-25T07:53:48.179Z,1012.55
2022-08-25T08:08:48.141Z,1012.73
2022-08-25T08:23:48.210Z,1012.55
2022-08-25T08:38:48.297Z,1012.40
2022-08-25T08:53:48.362Z,1012.25
2022-08-25T09:08:48.358Z,1012.06
2022-08-25T09:23:48.492Z,1011.99
2022-08-25T09:38:48.481Z,1011.77
2022-08-25T09:53:48.603Z,1011.64
2022-08-25T10:08:48.473Z,1011.45
2022-08-25T10:23:48.415Z,1011.36
2022-08-25T10:38:48.524Z,1011.14
2022-08-25T10:53:49.115Z,1010.99
2022-08-25T11:08:48.718Z,1010.83
2022-08-25T11:23:48.569Z,1010.69
2022-08-25T11:38:48.650Z,1010.62
2022-08-25T11:53:48.747Z,1010.37
2022-08-25T12:08:48.872Z,1010.25
2022-08-25T12:23:52.842Z,1010.19
2022-08-25T12:38:52.086Z,1010.00
2022-08-25T12:53:48.997Z,1009.88
2022-08-25T13:08:48.906Z,1009.82
2022-08-25T13:23:48.941Z,1009.49
2022-08-25T13:38:48.964Z,1009.47
2022-08-25T13:53:48.929Z,1009.44
2022-08-25T14:08:49.116Z,1009.18
2022-08-25T14:23:48.964Z,1009.18
2022-08-25T14:38:54.573Z,1009.03
2022-08-25T14:53:49.258Z,1008.99
2022-08-25T15:08:49.216Z,1008.82
2022-08-25T15:23:51.049Z,1008.65
2022-08-25T15:38:49.359Z,1008.52
2022-08-25T15:53:49.520Z,1008.56
2022-08-25T16:08:49.529Z,1008.44
2022-08-25T16:23:49.452Z,1008.40
2022-08-25T16:38:50.250Z,1008.35
2022-08-25T16:53:49.818Z,1008.30
2022-08-25T17:08:49.714Z,1008.32
2022-08-25T17:23:49.552Z,1008.34
2022-08-25T17:38:49.661Z,1008.39
2022-08-25T17:53:49.595Z,1008.55
2022-08-25T18:08:51.232Z,1008.51
2022-08-25T18:23:49.634Z,1008.66
2022-08-25T18:38:49.896Z,1008.67
2022-08-25T18:53:50.686Z,1008.69
2022-08-25T19:08:50.081Z,1008.79
2022-08-25T19:23:50.061Z,1008.81
2022-08-25T19:38:50.026Z,1008.87
2022-08-25T19:53:54.390Z,1008.84
2022-08-25T20:08:58.889Z,1008.82
2022-08-25T20:23:50.027Z,1008.85
2022-08-25T20:38:49.938Z,1008.88
2022-08-25T20:53:50.018Z,1008.90
2022-08-25T21:08:50.009Z,1008.97
2022-08-25T21:23:50.083Z,1009.00
2022-08-25T21:38:50.013Z,1009.00
2022-08-25T21:53:50.145Z,1009.04
2022-08-25T22:08:49.994Z,1009.01
2022-08-25T22:23:50.050Z,1009.01
2022-08-25T22:38:51.330Z,1009.11
2022-08-25T22:53:50.144Z,1009.19
2022-08-25T23:08:50.125Z,1009.20
2022-08-25T23:23:50.108Z,1009.28
2022-08-25T23:38:51.501Z,1009.30
2022-08-25T23:53:50.188Z,1009.39
